Back to top

Evanston, WY weather

Evanston-Unita County Airport/Burns Field, Evanston, WY: 1/20/2020 04:53
Visibility10 statute milesclear sky
View 7-Day Forecast
Area Summary
Sky/CloudsSky Clear
Weather [last 24 hours]None
Pressure30.36 in.Hg (1028 hPa)
3-hour Pressure Tendency0.02067 in.Hg (0.7 hPa) Steady or increasing, then decreasing; or decreasing then decreasing more rapidly
Dew Point6.1 °F (-14.4 °C)
Relative Humidity70.1 %
Temperature14 °F (-10 °C)blue thermometer
Wind Chill-0.236 °F (-17.9 °C)
Reading TimeMinimum to Maximum Temperature
6-hr ending 1/20@04:539 °F to 21 °F (-12.8 °C to -6.1 °C)
6-hr ending 1/19@22:5312.9 °F to 21.9 °F (-10.6 °C to -5.6 °C)
6-hr ending 1/19@16:5319 °F to 28.9 °F (-7.2 °C to -1.7 °C)
6-hr ending 1/19@10:537 °F to 21 °F (-13.9 °C to -6.1 °C)
24-hr ending 1/19@23:537 °F to 28.9 °F (-13.9 °C to -1.7 °C)
Wind12.7 MPH (11 KT) green arrow pointing 90 degrees
Wind FromEast (090 Degrees)
Twilight Begins07:13Sunshine Yesterday
Sunrise07:43N/A
Sunset17:28
Twilight Ends17:58
METARKEVW 201153Z AUTO 09011KT 10SM CLR M10/M14 A3036 RMK AO2 SLP337 T11001144 11061 21128 58007
Tags: